Time;durP1;ratioP1;P1;durP2;ratioP2;P2;SDS_P1;SDS_P2;PMS_P1;PMS_P2;Temp;Humidity;BMP_temperature;BMP_pressure;BME280_temperature;BME280_humidity;BME280_pressure;Samples;Min_cycle;Max_cycle;Signal;HPM_P1;HPM_P2
2022/01/31 00:02:29;;;;;;;21.35;2.12;;;;;;;3.01;61.38;100294.34;5589610;31;33873;-67
2022/01/31 00:05:32;;;;;;;12.07;2.20;;;;;;;3.12;60.99;100280.38;5589453;31;33948;-66
2022/01/31 00:08:35;;;;;;;15.45;2.25;;;;;;;3.13;61.03;100276.81;5589446;31;34336;-66
2022/01/31 00:11:42;;;;;;;17.20;2.28;;;;;;;3.07;60.70;100283.38;5589501;31;33873;-66
2022/01/31 00:14:48;;;;;;;15.98;2.00;;;;;;;3.02;61.48;100296.84;5576040;31;34841;-66
2022/01/31 00:17:51;;;;;;;9.13;1.77;;;;;;;3.14;60.33;100273.25;5588612;31;34368;-67
2022/01/31 00:20:54;;;;;;;18.85;2.37;;;;;;;3.17;59.72;100279.06;5575985;31;33861;-66
2022/01/31 00:23:57;;;;;;;12.45;2.10;;;;;;;3.20;59.32;100273.56;5588972;31;35385;-65
2022/01/31 00:27:00;;;;;;;16.12;2.78;;;;;;;3.12;59.85;100265.50;5589379;31;34111;-66
2022/01/31 00:30:05;;;;;;;12.37;2.30;;;;;;;3.15;59.44;100270.47;5589002;31;34085;-66
2022/01/31 00:33:08;;;;;;;13.90;1.87;;;;;;;3.14;59.62;100283.72;5589161;31;34397;-67
2022/01/31 00:36:11;;;;;;;9.02;2.37;;;;;;;3.12;59.83;100281.22;5588985;31;34627;-66
2022/01/31 00:39:14;;;;;;;11.38;3.08;;;;;;;3.04;60.52;100294.13;5589422;31;34682;-65
2022/01/31 00:42:19;;;;;;;12.60;2.15;;;;;;;3.05;59.86;100298.37;5588951;31;34248;-65
2022/01/31 00:45:28;;;;;;;14.90;2.12;;;;;;;2.99;60.26;100306.75;5588907;31;34140;-66
2022/01/31 00:48:34;;;;;;;14.65;2.53;;;;;;;3.03;59.63;100287.22;5588898;31;34230;-66
2022/01/31 00:51:37;;;;;;;12.50;2.08;;;;;;;3.08;59.42;100300.78;5588855;31;33885;-65
2022/01/31 00:54:39;;;;;;;10.50;2.65;;;;;;;2.94;60.26;100294.00;5575038;31;34839;-65
2022/01/31 00:57:43;;;;;;;10.60;1.62;;;;;;;2.82;60.67;100284.50;5588673;31;34384;-66
2022/01/31 01:00:46;;;;;;;16.33;2.80;;;;;;;2.82;60.57;100299.38;5574931;31;33989;-65
2022/01/31 01:03:49;;;;;;;12.88;2.12;;;;;;;2.88;60.38;100297.13;5588580;31;33897;-65
2022/01/31 01:06:52;;;;;;;17.73;2.20;;;;;;;2.84;60.76;100306.16;5588500;31;35180;-66
2022/01/31 01:09:54;;;;;;;10.73;2.42;;;;;;;2.75;60.63;100301.66;5588530;31;34795;-68
2022/01/31 01:12:57;;;;;;;19.33;2.55;;;;;;;2.82;59.84;100315.91;5588658;31;34029;-65
2022/01/31 01:16:00;;;;;;;19.23;2.65;;;;;;;2.77;59.93;100322.47;5588225;31;34063;-65
2022/01/31 01:19:04;;;;;;;13.93;2.00;;;;;;;2.54;61.10;100329.50;5588348;31;33919;-65
2022/01/31 01:22:07;;;;;;;18.37;2.47;;;;;;;2.44;61.21;100334.59;5588285;31;33893;-65
2022/01/31 01:25:12;;;;;;;19.20;2.70;;;;;;;2.54;61.07;100332.13;5588064;31;34211;-65
2022/01/31 01:28:16;;;;;;;14.00;2.87;;;;;;;2.64;60.44;100335.69;5574553;31;34710;-65
2022/01/31 01:31:22;;;;;;;17.05;2.33;;;;;;;2.62;60.19;100343.66;5590165;31;33937;-66
2022/01/31 01:34:32;;;;;;;16.42;2.37;;;;;;;2.73;59.80;100342.84;5577732;31;34654;-65
2022/01/31 01:37:35;;;;;;;17.77;2.95;;;;;;;2.84;59.28;100348.09;5590808;31;34642;-65
2022/01/31 01:40:40;;;;;;;12.65;2.25;;;;;;;2.75;59.55;100348.81;5590880;31;35245;-65
2022/01/31 01:43:44;;;;;;;17.12;2.35;;;;;;;2.75;59.49;100345.34;5577445;31;33927;-66
2022/01/31 01:46:47;;;;;;;17.30;2.55;;;;;;;2.84;59.03;100345.47;5590774;31;33958;-65
2022/01/31 01:49:52;;;;;;;21.73;2.80;;;;;;;2.94;58.53;100341.19;5590811;31;34662;-66
2022/01/31 01:52:55;;;;;;;15.55;2.87;;;;;;;2.86;58.65;100335.69;5590765;31;34022;-66
2022/01/31 01:55:59;;;;;;;13.20;2.17;;;;;;;3.00;57.80;100338.06;5590373;31;35474;-65
2022/01/31 01:59:05;;;;;;;15.88;2.50;;;;;;;3.08;57.95;100315.66;5590964;31;33864;-66
2022/01/31 02:02:08;;;;;;;14.98;2.37;;;;;;;2.99;58.55;100327.72;5590983;31;34703;-66
2022/01/31 02:05:12;;;;;;;24.98;3.10;;;;;;;2.97;58.39;100316.50;5590878;31;34112;-65
2022/01/31 02:08:17;;;;;;;14.93;2.70;;;;;;;2.86;58.62;100306.88;5576842;31;34040;-65
2022/01/31 02:11:20;;;;;;;9.70;2.33;;;;;;;2.83;58.57;100307.12;5590464;31;33899;-66
2022/01/31 02:14:25;;;;;;;13.10;1.67;;;;;;;2.85;58.44;100310.47;5590495;31;33965;-65
2022/01/31 02:17:31;;;;;;;13.95;2.47;;;;;;;2.74;59.30;100312.25;5590511;31;35214;-66
2022/01/31 02:20:41;;;;;;;11.52;2.17;;;;;;;2.74;58.74;100304.38;5590470;31;33937;-66
2022/01/31 02:23:44;;;;;;;11.52;2.35;;;;;;;2.75;58.77;100293.78;5590808;31;33946;-65
2022/01/31 02:26:48;;;;;;;18.62;2.42;;;;;;;2.74;59.40;100286.06;5590183;31;34313;-66
2022/01/31 02:29:52;;;;;;;15.48;2.50;;;;;;;2.60;59.93;100276.66;5571924;31;152241;-67
2022/01/31 02:32:55;;;;;;;18.92;3.03;;;;;;;2.61;59.38;100294.03;5590338;31;33951;-66
2022/01/31 02:36:03;;;;;;;13.93;2.55;;;;;;;2.60;59.32;100284.50;5590188;31;33898;-65
2022/01/31 02:39:07;;;;;;;18.30;2.45;;;;;;;2.67;59.02;100269.97;5590319;31;34679;-65
2022/01/31 02:42:10;;;;;;;11.75;2.67;;;;;;;2.59;59.30;100283.69;5589852;31;34420;-66
2022/01/31 02:45:14;;;;;;;9.57;2.28;;;;;;;2.61;59.51;100275.72;5590193;31;34020;-65
2022/01/31 02:48:20;;;;;;;11.93;2.17;;;;;;;2.55;59.27;100277.03;5590424;31;33865;-65
2022/01/31 02:51:26;;;;;;;19.12;3.12;;;;;;;2.45;60.16;100256.91;5576471;31;35289;-66
2022/01/31 02:54:31;;;;;;;18.30;2.42;;;;;;;2.62;58.91;100259.84;5590422;31;34679;-65
2022/01/31 02:57:38;;;;;;;16.17;2.75;;;;;;;2.49;59.76;100251.31;5590380;31;34133;-66
2022/01/31 03:00:41;;;;;;;19.23;3.20;;;;;;;2.38;60.11;100250.47;5590036;31;34740;-65
2022/01/31 03:03:44;;;;;;;15.77;2.67;;;;;;;2.34;60.18;100233.31;5590379;31;34570;-66
2022/01/31 03:06:49;;;;;;;11.30;2.25;;;;;;;2.33;60.64;100226.41;5576109;31;34676;-65
2022/01/31 03:09:53;;;;;;;16.17;2.33;;;;;;;2.47;59.35;100234.06;5590066;31;34037;-65
2022/01/31 03:12:56;;;;;;;12.15;2.35;;;;;;;2.39;60.00;100228.56;5590034;31;34030;-66
2022/01/31 03:15:59;;;;;;;13.65;2.33;;;;;;;2.48;59.37;100228.69;5589947;31;34161;-65
2022/01/31 03:19:03;;;;;;;15.70;2.58;;;;;;;2.44;59.54;100201.09;5590253;31;34257;-66
2022/01/31 03:22:07;;;;;;;10.63;2.35;;;;;;;2.52;59.59;100226.66;5589913;31;34654;-65
2022/01/31 03:25:10;;;;;;;19.40;2.83;;;;;;;2.31;60.55;100218.72;5576108;31;34170;-65
2022/01/31 03:28:13;;;;;;;19.02;2.70;;;;;;;2.51;59.60;100204.91;5589696;31;34089;-65
2022/01/31 03:31:18;;;;;;;14.87;2.90;;;;;;;2.32;60.39;100209.91;5589751;31;33996;-66
2022/01/31 03:34:22;;;;;;;13.43;2.22;;;;;;;2.22;60.37;100215.97;5590174;31;34055;-65
2022/01/31 03:37:25;;;;;;;12.05;2.03;;;;;;;2.28;60.88;100212.84;5589769;31;34030;-65
2022/01/31 03:40:28;;;;;;;15.00;2.22;;;;;;;2.36;60.29;100216.56;5590167;31;34653;-65
2022/01/31 03:43:31;;;;;;;19.95;3.97;;;;;;;2.38;60.41;100212.03;5589820;31;33898;-66
2022/01/31 03:46:35;;;;;;;13.00;2.35;;;;;;;2.41;60.10;100218.81;5590034;31;34726;-66
2022/01/31 03:49:38;;;;;;;12.50;2.20;;;;;;;2.48;59.59;100207.75;5589924;31;33872;-66
2022/01/31 03:52:42;;;;;;;14.63;2.15;;;;;;;2.48;60.18;100214.75;5588552;31;34630;-65
2022/01/31 03:55:45;;;;;;;16.40;2.90;;;;;;;2.59;59.85;100231.31;5589965;31;33976;-65
2022/01/31 03:58:48;;;;;;;18.92;3.03;;;;;;;2.58;59.40;100219.16;5589545;31;34942;-65
2022/01/31 04:01:51;;;;;;;18.00;2.35;;;;;;;2.66;59.54;100210.72;5589542;31;34523;-65
2022/01/31 04:04:54;;;;;;;17.90;2.45;;;;;;;2.69;58.62;100207.00;5589545;31;34687;-65
2022/01/31 04:07:57;;;;;;;16.42;2.50;;;;;;;2.68;58.95;100200.09;5589451;31;34097;-65
2022/01/31 04:11:02;;;;;;;10.95;1.83;;;;;;;2.72;59.16;100193.66;5589459;31;33816;-65
2022/01/31 04:14:04;;;;;;;14.10;2.50;;;;;;;2.74;58.72;100176.88;5575733;31;34044;-65
2022/01/31 04:17:10;;;;;;;17.55;2.25;;;;;;;2.71;58.29;100168.44;5589257;31;34689;-65
2022/01/31 04:20:13;;;;;;;16.25;2.75;;;;;;;2.78;57.92;100166.97;5575926;31;33972;-66
2022/01/31 04:23:18;;;;;;;12.90;2.58;;;;;;;3.03;56.74;100169.28;5589316;31;33964;-66
2022/01/31 04:26:21;;;;;;;16.73;2.95;;;;;;;3.16;55.96;100142.88;5562813;31;34634;-66
2022/01/31 04:29:30;;;;;;;15.55;2.37;;;;;;;3.29;54.39;100156.66;5588904;31;34441;-66
2022/01/31 04:32:33;;;;;;;10.98;2.15;;;;;;;3.35;54.06;100162.22;5575421;31;32447;-66
2022/01/31 04:35:35;;;;;;;16.95;2.00;;;;;;;3.37;53.72;100154.22;5575274;31;34639;-66
2022/01/31 04:38:38;;;;;;;18.08;2.53;;;;;;;3.35;53.77;100148.28;5588952;31;34222;-66
2022/01/31 04:41:40;;;;;;;19.67;3.50;;;;;;;3.36;53.68;100160.44;5588911;31;34043;-65
2022/01/31 04:44:42;;;;;;;13.52;2.45;;;;;;;3.38;53.24;100151.50;5588943;31;33894;-66
2022/01/31 04:47:45;;;;;;;11.35;2.30;;;;;;;3.41;53.14;100147.78;5575109;31;34032;-65
2022/01/31 04:50:48;;;;;;;12.25;1.92;;;;;;;3.54;52.50;100163.31;5588887;31;34674;-66
2022/01/31 04:53:50;;;;;;;15.25;2.78;;;;;;;3.46;52.87;100158.72;5588820;31;34644;-66
2022/01/31 04:56:53;;;;;;;10.93;2.10;;;;;;;3.47;52.65;100168.25;5588541;31;34649;-66
2022/01/31 04:59:55;;;;;;;14.90;2.55;;;;;;;3.48;52.07;100154.19;5588434;31;34430;-65
2022/01/31 05:02:58;;;;;;;12.18;2.58;;;;;;;3.57;51.90;100153.41;5588573;31;33965;-65
2022/01/31 05:06:00;;;;;;;12.50;2.30;;;;;;;3.48;52.04;100146.31;5577590;31;35475;-67
2022/01/31 05:09:04;;;;;;;12.50;2.15;;;;;;;3.43;52.09;100117.03;5591064;31;34209;-66
2022/01/31 05:12:07;;;;;;;16.90;3.05;;;;;;;3.46;52.05;100093.16;5591053;31;33976;-66
2022/01/31 05:15:09;;;;;;;12.57;2.03;;;;;;;3.36;52.13;100079.97;5577230;31;35244;-66
2022/01/31 05:18:13;;;;;;;8.90;1.98;;;;;;;3.33;52.18;100082.88;5591010;31;34391;-66
2022/01/31 05:21:16;;;;;;;15.68;2.75;;;;;;;3.42;52.12;100086.50;5591049;31;34593;-66
2022/01/31 05:24:18;;;;;;;16.02;3.03;;;;;;;3.38;52.15;100088.56;5590963;31;34302;-66
2022/01/31 05:27:21;;;;;;;9.48;2.08;;;;;;;3.26;53.03;100086.97;5577021;31;34652;-66
2022/01/31 05:30:24;;;;;;;10.70;2.20;;;;;;;3.31;52.83;100095.28;5590657;31;34168;-66
2022/01/31 05:33:26;;;;;;;21.42;2.72;;;;;;;3.28;52.83;100097.31;5577018;31;34666;-66
2022/01/31 05:36:29;;;;;;;13.13;2.42;;;;;;;3.26;52.98;100094.00;5590816;31;34668;-66
2022/01/31 05:39:31;;;;;;;13.70;2.47;;;;;;;3.19;53.67;100079.75;5576953;31;33986;-66
2022/01/31 05:42:34;;;;;;;13.00;2.47;;;;;;;3.16;53.90;100066.88;5590788;31;34055;-66
2022/01/31 05:45:37;;;;;;;14.30;2.65;;;;;;;3.07;53.92;100071.09;5576545;31;33968;-65
2022/01/31 05:48:39;;;;;;;16.25;2.85;;;;;;;3.09;54.11;100065.75;5590643;31;33931;-65
2022/01/31 05:51:48;;;;;;;12.95;2.65;;;;;;;3.04;54.31;100060.87;5590720;31;33950;-65
2022/01/31 05:54:50;;;;;;;19.00;2.62;;;;;;;2.95;54.84;100065.06;5590618;31;34006;-66
2022/01/31 05:57:52;;;;;;;16.48;2.10;;;;;;;2.94;55.01;100054.75;5590537;31;34559;-65
2022/01/31 06:00:56;;;;;;;19.35;2.45;;;;;;;2.91;55.38;100057.59;5590518;31;34835;-66
2022/01/31 06:03:59;;;;;;;14.95;2.37;;;;;;;2.93;54.90;100059.16;5576775;31;34553;-65
2022/01/31 06:07:02;;;;;;;13.70;3.20;;;;;;;2.99;55.24;100071.75;5590391;31;34738;-66
2022/01/31 06:10:05;;;;;;;19.55;3.05;;;;;;;2.91;55.67;100073.31;5590339;31;34761;-65
2022/01/31 06:13:08;;;;;;;12.68;2.42;;;;;;;2.90;55.61;100083.00;5590465;31;34068;-65
2022/01/31 06:16:11;;;;;;;15.40;2.45;;;;;;;2.83;56.08;100084.44;5589538;31;34642;-65
2022/01/31 06:19:14;;;;;;;15.43;2.25;;;;;;;2.82;56.62;100087.19;5590354;31;35281;-65
2022/01/31 06:22:17;;;;;;;14.48;2.65;;;;;;;2.82;56.62;100074.06;5590017;31;34690;-66
2022/01/31 06:25:20;;;;;;;15.88;2.47;;;;;;;2.74;57.00;100076.50;5590206;31;34765;-65
2022/01/31 06:28:24;;;;;;;13.48;2.53;;;;;;;2.77;57.04;100071.00;5590008;31;33857;-65
2022/01/31 06:31:33;;;;;;;19.73;2.97;;;;;;;2.79;56.39;100069.09;5590003;31;34344;-66
2022/01/31 06:34:36;;;;;;;16.55;3.00;;;;;;;2.78;56.96;100070.06;5590067;31;34943;-65
2022/01/31 06:37:38;;;;;;;13.85;2.15;;;;;;;2.78;56.87;100062.19;5589406;31;33911;-65
2022/01/31 06:40:41;;;;;;;16.77;2.97;;;;;;;2.81;56.49;100054.91;5575954;31;34397;-66
2022/01/31 06:43:46;;;;;;;15.82;2.42;;;;;;;2.75;56.90;100059.84;5590279;31;33979;-65
2022/01/31 06:46:49;;;;;;;18.25;2.45;;;;;;;2.64;57.04;100058.09;5576436;31;35170;-65
2022/01/31 06:49:52;;;;;;;17.77;2.60;;;;;;;2.65;58.30;100064.16;5576187;31;33984;-65
2022/01/31 06:52:56;;;;;;;16.55;2.33;;;;;;;2.81;56.85;100067.19;5576249;31;33870;-66
2022/01/31 06:55:59;;;;;;;17.48;2.80;;;;;;;2.77;56.77;100068.38;5575677;31;33998;-65
2022/01/31 06:59:02;;;;;;;13.20;2.47;;;;;;;2.85;56.58;100056.34;5576153;31;34022;-65
2022/01/31 07:02:05;;;;;;;17.15;2.72;;;;;;;2.86;56.31;100042.25;5575871;31;34265;-65
2022/01/31 07:05:08;;;;;;;12.77;3.22;;;;;;;2.89;56.70;100039.41;5589625;31;34763;-64
2022/01/31 07:08:13;;;;;;;16.50;2.90;;;;;;;2.94;56.38;100021.50;5576041;31;34124;-64
2022/01/31 07:11:21;;;;;;;17.85;2.30;;;;;;;3.00;56.44;100020.97;5589421;31;35362;-65
2022/01/31 07:14:30;;;;;;;15.88;3.00;;;;;;;2.97;57.61;100018.62;5589857;31;34287;-66
2022/01/31 07:17:35;;;;;;;15.77;2.27;;;;;;;2.93;57.38;100029.50;5589703;31;34294;-66
2022/01/31 07:20:41;;;;;;;24.08;2.87;;;;;;;2.88;57.28;100008.91;5589734;31;34085;-65
2022/01/31 07:24:06;;;;;;;19.27;2.87;;;;;;;2.99;56.44;100008.03;5589440;31;34306;-65
2022/01/31 07:27:09;;;;;;;15.80;2.35;;;;;;;3.10;55.84;100002.69;5589764;31;34023;-65
2022/01/31 07:30:13;;;;;;;21.67;3.33;;;;;;;3.15;55.80;100007.56;5589312;31;34871;-65
2022/01/31 07:33:17;;;;;;;15.57;3.08;;;;;;;3.25;56.63;100008.44;5575678;31;34066;-65
2022/01/31 07:36:22;;;;;;;11.05;2.87;;;;;;;3.22;57.00;99996.44;5575260;31;34571;-66
2022/01/31 07:39:24;;;;;;;16.85;2.92;;;;;;;3.27;56.34;99993.41;5589533;31;34269;-66
2022/01/31 07:42:27;;;;;;;20.00;3.22;;;;;;;3.53;56.17;99993.81;5589446;31;34638;-65
2022/01/31 07:45:32;;;;;;;14.85;2.87;;;;;;;3.73;55.64;99985.84;5589572;31;33895;-66
2022/01/31 07:48:35;;;;;;;21.12;3.05;;;;;;;3.70;55.60;99970.41;5589438;31;34024;-65
2022/01/31 07:51:40;;;;;;;16.87;2.90;;;;;;;3.73;55.83;99966.66;5589339;31;33961;-65
2022/01/31 07:54:44;;;;;;;17.77;2.92;;;;;;;3.76;55.05;99956.75;5589395;31;34056;-65
2022/01/31 07:57:47;;;;;;;16.62;3.22;;;;;;;3.73;55.60;99958.78;5575963;31;34491;-65
2022/01/31 08:00:51;;;;;;;13.70;3.20;;;;;;;3.59;55.84;99951.28;5589373;31;34693;-65
2022/01/31 08:03:54;;;;;;;17.30;2.53;;;;;;;3.51;56.57;99941.50;5589315;31;34417;-65
2022/01/31 08:06:56;;;;;;;13.75;2.78;;;;;;;3.48;56.38;99958.34;5589169;31;35259;-65
2022/01/31 08:10:01;;;;;;;21.15;3.35;;;;;;;3.63;56.54;99960.59;5589552;31;33974;-65
2022/01/31 08:13:06;;;;;;;13.52;2.67;;;;;;;3.83;56.09;99965.72;5589351;31;34675;-66
2022/01/31 08:16:09;;;;;;;18.73;2.65;;;;;;;3.96;55.80;99967.28;5589496;31;34335;-65
2022/01/31 08:19:12;;;;;;;15.07;3.05;;;;;;;4.01;55.20;99968.53;5589487;31;34524;-65
2022/01/31 08:22:35;;;;;;;12.23;2.85;;;;;;;4.12;55.48;99954.44;5577872;31;35126;-66
2022/01/31 08:25:38;;;;;;;16.92;2.78;;;;;;;4.39;55.16;99959.84;5589111;31;34110;-65
2022/01/31 08:28:45;;;;;;;14.40;3.60;;;;;;;4.43;53.95;99949.88;5589322;31;34662;-65
2022/01/31 08:31:52;;;;;;;17.90;3.37;;;;;;;4.35;54.03;99945.34;5589145;31;34580;-66
2022/01/31 08:38:18;;;;;;;17.02;3.75;;;;;;;4.25;54.42;99942.72;5587859;31;34063;-66
2022/01/31 08:41:21;;;;;;;23.67;3.60;;;;;;;3.99;55.42;99954.72;5588640;31;33958;-65
2022/01/31 08:44:26;;;;;;;15.55;2.80;;;;;;;4.23;55.10;99934.13;5588759;31;33954;-65
2022/01/31 08:47:29;;;;;;;18.15;2.95;;;;;;;4.21;55.35;99936.06;5588836;31;34017;-65
2022/01/31 08:50:35;;;;;;;17.05;2.65;;;;;;;4.15;55.20;99920.06;5588359;31;33909;-66
2022/01/31 08:53:39;;;;;;;17.17;3.37;;;;;;;4.47;54.04;99917.13;5588135;31;35243;-65
2022/01/31 08:56:47;;;;;;;21.52;3.67;;;;;;;4.45;54.20;99919.91;5588309;31;35250;-65
2022/01/31 08:59:51;;;;;;;15.55;2.85;;;;;;;4.56;54.90;99908.41;5574145;31;35223;-66
2022/01/31 09:03:16;;;;;;;16.95;2.92;;;;;;;4.62;53.85;99903.41;5588463;31;33996;-66
2022/01/31 09:06:22;;;;;;;16.17;3.08;;;;;;;4.78;53.73;99908.09;5587937;31;34274;-66
2022/01/31 09:09:25;;;;;;;16.55;2.95;;;;;;;4.70;53.15;99911.41;5588446;31;33961;-66
2022/01/31 09:12:31;;;;;;;12.43;2.30;;;;;;;4.83;53.99;99908.50;5587521;31;34678;-66
2022/01/31 09:15:34;;;;;;;14.50;2.45;;;;;;;4.96;53.57;99893.22;5588112;31;34596;-65
2022/01/31 09:18:37;;;;;;;19.02;3.50;;;;;;;5.03;52.56;99901.37;5573810;31;34011;-65
2022/01/31 09:21:40;;;;;;;17.70;3.95;;;;;;;5.30;52.07;99895.31;5587586;31;34021;-66
2022/01/31 09:24:44;;;;;;;18.37;3.10;;;;;;;5.45;51.61;99896.47;5587759;31;33985;-66
2022/01/31 09:27:46;;;;;;;14.75;2.80;;;;;;;5.50;51.30;99904.75;5587470;31;34685;-65
2022/01/31 09:30:51;;;;;;;19.02;2.75;;;;;;;5.09;52.07;99898.16;5587307;31;34031;-66
2022/01/31 09:33:58;;;;;;;17.40;3.00;;;;;;;5.18;52.41;99900.75;5574697;31;34267;-66
2022/01/31 09:37:02;;;;;;;11.00;2.47;;;;;;;5.43;51.63;99870.31;5587811;31;35663;-66
2022/01/31 09:40:05;;;;;;;14.27;2.67;;;;;;;5.45;51.89;99870.16;5587865;31;34305;-65
2022/01/31 09:46:44;;;;;;;13.90;3.00;;;;;;;5.32;52.45;99861.81;5587603;31;35338;-65
2022/01/31 09:49:41;;;;;;;15.93;2.53;;;;;;;5.17;52.64;99857.03;5587397;31;33952;-64
2022/01/31 09:52:44;;;;;;;17.95;2.97;;;;;;;5.12;53.05;99840.03;5590138;31;34652;-64
2022/01/31 09:55:48;;;;;;;14.48;3.08;;;;;;;5.40;53.51;99839.03;5576493;31;34769;-66
2022/01/31 09:58:54;;;;;;;11.63;2.62;;;;;;;5.50;53.28;99820.56;5576599;31;34289;-65
2022/01/31 10:01:58;;;;;;;24.60;3.12;;;;;;;5.26;52.87;99810.63;5590368;31;33946;-66
2022/01/31 10:05:01;;;;;;;15.02;2.92;;;;;;;5.04;53.58;99805.75;5590086;31;34670;-65
2022/01/31 10:08:14;;;;;;;15.25;2.58;;;;;;;4.84;54.32;99796.31;5576162;31;34297;-66
2022/01/31 10:11:27;;;;;;;13.43;3.33;;;;;;;4.88;54.63;99795.06;5590326;31;34637;-65
2022/01/31 10:18:01;;;;;;;15.15;2.55;;;;;;;5.07;54.00;99787.91;5589771;31;33978;-65
2022/01/31 10:21:03;;;;;;;17.98;2.75;;;;;;;5.24;54.27;99778.38;5589758;31;35160;-65
2022/01/31 10:24:26;;;;;;;17.85;2.80;;;;;;;5.72;52.92;99771.91;5589815;31;35184;-65
2022/01/31 10:27:34;;;;;;;16.35;2.72;;;;;;;5.90;51.71;99762.25;5589538;31;34726;-65
2022/01/31 10:30:37;;;;;;;12.23;2.92;;;;;;;5.71;52.06;99759.75;5589975;31;35335;-64
2022/01/31 10:33:58;;;;;;;19.33;3.20;;;;;;;5.60;52.71;99753.75;5590151;31;34737;-64
2022/01/31 10:37:09;;;;;;;17.37;2.58;;;;;;;5.50;52.87;99741.66;5591170;31;34053;-61
2022/01/31 10:44:11;;;;;;;14.77;2.67;;;;;;;5.92;52.02;99739.22;5578677;31;34386;-66
2022/01/31 10:51:07;;;;;;;13.82;2.47;;;;;;;6.17;50.46;99729.66;5589752;31;33876;-65
2022/01/31 10:57:24;;;;;;;17.85;3.12;;;;;;;6.02;51.58;99711.81;5589407;31;34314;-65
2022/01/31 11:00:38;;;;;;;14.38;2.58;;;;;;;6.12;50.49;99695.91;5589729;31;34504;-64
2022/01/31 11:03:42;;;;;;;14.32;2.72;;;;;;;5.82;51.14;99686.63;5589335;31;33998;-65
2022/01/31 11:06:46;;;;;;;15.20;2.40;;;;;;;5.99;51.11;99677.06;5589618;31;33881;-64
2022/01/31 11:09:51;;;;;;;16.83;2.92;;;;;;;6.16;51.17;99684.06;5589940;31;35251;-65
2022/01/31 11:12:54;;;;;;;15.35;2.60;;;;;;;6.10;50.37;99661.00;5589602;31;34038;-64
2022/01/31 11:15:57;;;;;;;12.57;2.37;;;;;;;5.65;50.64;99664.66;5589850;31;33896;-65
2022/01/31 11:19:06;;;;;;;12.10;1.85;;;;;;;5.45;51.20;99657.91;5589625;31;33841;-64
2022/01/31 11:22:14;;;;;;;10.82;2.10;;;;;;;5.51;51.94;99661.75;5589799;31;33904;-64
2022/01/31 11:25:40;;;;;;;10.70;2.22;;;;;;;5.49;50.89;99627.69;5589837;31;34086;-64
2022/01/31 11:28:48;;;;;;;9.75;2.10;;;;;;;5.65;50.90;99613.84;5589848;31;34580;-65
2022/01/31 11:31:51;;;;;;;10.57;2.12;;;;;;;5.97;50.25;99615.84;5589428;31;34599;-65
2022/01/31 11:34:55;;;;;;;12.00;2.28;;;;;;;6.01;50.06;99607.47;5589415;31;34005;-65
2022/01/31 11:37:58;;;;;;;17.25;2.72;;;;;;;6.03;49.93;99599.41;5589511;31;34585;-65
2022/01/31 11:41:05;;;;;;;10.13;1.85;;;;;;;5.86;50.61;99584.47;5575730;31;33949;-64
2022/01/31 11:44:27;;;;;;;9.73;2.10;;;;;;;5.88;50.79;99583.41;5589547;31;35533;-65
2022/01/31 11:47:32;;;;;;;10.27;1.73;;;;;;;6.06;49.62;99588.56;5589412;31;35193;-65
2022/01/31 11:50:43;;;;;;;10.95;2.40;;;;;;;6.07;50.68;99579.69;5589329;31;33889;-64
2022/01/31 11:53:46;;;;;;;11.35;2.25;;;;;;;6.17;49.78;99576.94;5589524;31;34568;-64
2022/01/31 11:56:52;;;;;;;11.12;2.05;;;;;;;5.87;50.63;99562.47;5589451;31;33989;-64
2022/01/31 12:00:17;;;;;;;12.75;2.62;;;;;;;5.96;50.19;99549.19;5589297;31;34599;-63
2022/01/31 12:03:19;;;;;;;12.13;1.90;;;;;;;5.80;50.00;99535.13;5589374;31;34384;-64
2022/01/31 12:06:24;;;;;;;11.30;2.17;;;;;;;5.76;50.26;99544.31;5589340;31;34617;-64
2022/01/31 12:09:30;;;;;;;13.38;2.40;;;;;;;5.61;50.85;99542.28;5589129;31;34737;-64
2022/01/31 12:12:49;;;;;;;12.45;2.83;;;;;;;5.43;51.25;99548.56;5588889;31;35258;-64
2022/01/31 12:22:04;;;;;;;15.05;2.45;;;;;;;5.65;50.88;99538.34;5575373;31;34389;-64
2022/01/31 12:25:20;;;;;;;14.80;2.33;;;;;;;5.50;51.23;99558.31;5589013;31;34312;-64
2022/01/31 12:28:43;;;;;;;8.05;2.17;;;;;;;5.64;51.17;99549.03;5589336;31;33885;-64
2022/01/31 12:31:51;;;;;;;9.50;2.00;;;;;;;5.35;51.75;99553.78;5588773;31;34095;-64
2022/01/31 12:35:01;;;;;;;15.18;2.70;;;;;;;5.22;51.47;99551.56;5588847;31;34664;-64
2022/01/31 12:38:06;;;;;;;13.52;2.08;;;;;;;5.01;52.04;99544.00;5589196;31;34502;-64
2022/01/31 12:41:33;;;;;;;13.15;2.20;;;;;;;5.02;52.57;99532.53;5588563;31;34695;-64
2022/01/31 12:44:36;;;;;;;16.90;2.90;;;;;;;5.05;52.61;99510.34;5589020;31;33908;-65
2022/01/31 12:48:19;;;;;;;12.35;3.35;;;;;;;5.27;52.21;99516.91;5574673;31;34165;-65
2022/01/31 12:51:23;;;;;;;12.32;3.17;;;;;;;5.28;52.14;99506.22;5588325;31;33976;-64
2022/01/31 12:54:26;;;;;;;20.30;2.67;;;;;;;5.06;52.60;99493.59;5588567;31;34609;-65
2022/01/31 12:57:29;;;;;;;12.10;2.33;;;;;;;4.92;53.20;99502.06;5588625;31;34014;-65
2022/01/31 13:00:39;;;;;;;12.18;2.80;;;;;;;5.04;53.05;99499.00;5574728;31;33975;-65
2022/01/31 13:04:04;;;;;;;14.07;2.60;;;;;;;5.21;52.72;99498.16;5588596;31;34086;-65
2022/01/31 13:07:09;;;;;;;11.88;3.35;;;;;;;5.31;52.67;99490.16;5588389;31;33909;-65
2022/01/31 13:10:37;;;;;;;14.43;2.53;;;;;;;5.31;52.47;99491.97;5588283;31;35205;-64
2022/01/31 13:13:40;;;;;;;12.90;3.22;;;;;;;5.08;53.29;99476.69;5588154;31;34628;-64
2022/01/31 13:17:01;;;;;;;23.15;4.15;;;;;;;5.19;53.28;99471.19;5588356;31;33984;-65
2022/01/31 13:20:05;;;;;;;17.77;3.65;;;;;;;5.30;52.94;99458.75;5575771;31;34141;-65
2022/01/31 13:23:08;;;;;;;12.35;2.33;;;;;;;5.37;52.50;99439.56;5588298;31;34695;-65
2022/01/31 13:26:11;;;;;;;15.50;3.10;;;;;;;5.46;52.52;99443.06;5589957;31;35198;-65
2022/01/31 13:29:32;;;;;;;12.00;2.25;;;;;;;5.61;52.16;99458.09;5591137;31;34098;-65
2022/01/31 13:32:35;;;;;;;;;;;;;;;5.50;52.29;99449.66;5577212;31;34324;-65
2022/01/31 13:35:40;;;;;;;19.02;2.53;;;;;;;5.40;52.46;99443.69;5577228;31;34339;-65
2022/01/31 13:38:44;;;;;;;15.88;2.60;;;;;;;5.52;53.00;99429.25;5590295;31;34102;-65
2022/01/31 13:41:48;;;;;;;8.80;2.22;;;;;;;5.63;52.33;99432.44;5590878;31;35242;-65
2022/01/31 13:44:52;;;;;;;12.05;2.53;;;;;;;5.68;52.22;99426.69;5590642;31;34627;-65
2022/01/31 13:48:03;;;;;;;14.63;2.58;;;;;;;5.73;52.27;99419.13;5590644;31;34600;-65
2022/01/31 13:51:12;;;;;;;11.20;2.72;;;;;;;5.72;52.16;99411.38;5590371;31;34784;-65
2022/01/31 13:54:16;;;;;;;13.95;2.50;;;;;;;5.77;52.04;99409.94;5590515;31;34606;-65
2022/01/31 13:57:19;;;;;;;11.48;2.70;;;;;;;5.52;52.74;99418.72;5590451;31;34372;-65
2022/01/31 14:00:25;;;;;;;14.13;3.05;;;;;;;5.36;53.45;99411.63;5590240;31;35198;-65
2022/01/31 14:03:29;;;;;;;16.48;3.12;;;;;;;5.24;53.79;99403.16;5590373;31;34641;-65
2022/01/31 14:06:33;;;;;;;14.23;2.87;;;;;;;5.10;54.49;99403.75;5590141;31;33998;-65
2022/01/31 14:09:36;;;;;;;15.75;3.20;;;;;;;5.06;55.08;99398.97;5590361;31;33926;-65
2022/01/31 14:12:40;;;;;;;13.50;2.85;;;;;;;5.13;54.67;99402.62;5576388;31;33379;-65
2022/01/31 14:15:48;;;;;;;21.42;3.65;;;;;;;5.03;54.88;99405.38;5590693;31;34042;-65
2022/01/31 14:18:53;;;;;;;15.77;2.95;;;;;;;5.02;54.81;99408.16;5589911;31;34668;-65
2022/01/31 14:21:56;;;;;;;15.07;3.33;;;;;;;4.95;54.82;99412.38;5590002;31;34242;-65
2022/01/31 14:25:10;;;;;;;13.23;2.95;;;;;;;4.98;54.91;99398.94;5590205;31;34182;-65
2022/01/31 14:28:14;;;;;;;10.95;2.70;;;;;;;4.93;55.77;99388.91;5576285;31;34059;-65
2022/01/31 14:31:33;;;;;;;17.52;2.83;;;;;;;4.97;54.95;99398.13;5590001;31;33976;-65
2022/01/31 14:34:58;;;;;;;15.32;4.05;;;;;;;4.89;55.70;99386.75;5589930;31;34070;-65
2022/01/31 14:38:10;;;;;;;10.43;2.92;;;;;;;4.99;55.32;99401.41;5589018;31;34562;-65
2022/01/31 14:41:56;;;;;;;16.37;4.32;;;;;;;4.89;55.52;99394.62;5590205;31;34593;-64
2022/01/31 14:48:31;;;;;;;13.77;3.03;;;;;;;4.87;55.14;99384.25;5589448;31;34695;-64
2022/01/31 14:51:36;;;;;;;17.35;2.72;;;;;;;4.82;55.53;99389.16;5589813;31;34253;-64
2022/01/31 14:54:41;;;;;;;19.15;3.47;;;;;;;4.77;55.64;99371.22;5590102;31;34874;-64
2022/01/31 14:57:45;;;;;;;12.55;2.80;;;;;;;4.59;56.33;99385.41;5576216;31;33970;-64
2022/01/31 15:00:49;;;;;;;13.27;2.67;;;;;;;4.57;56.64;99379.47;5575784;31;34055;-65